Aérodrome :
LOGIN :

S'inscrire | Disclaimer

   EN    FR    IT 

 










Légende :    VFR   VFR Marginal   IFR   IFR Intensif   IFR Très Intensif
Visi : 
Plafond : 
>= 8 km
>= 3000ft
5 à 8 km
1000 à 3000 ft
1500m à 5 km
500 à 1000 ft
800 à 1500m
200 à 500 ft
< 800m
< 200 ft
Symboles :   Orages  Brouillard  Fortes neiges  Fortes précipitations  Vent > 20 kt
SIGMETs :   Divers  Orages  Givrage  Turbulence  Onde Orograph.  Cendres Volcan.







- Altitude de l'aérodrome : 132 ft


EGXE - RAF Leeming

DERNIER METAR :
  • 180620Z 20006KT 9999 FEW016 13/09 Q1013 RMK BLU

METARs EXPIRÉS :
  • 180550Z 17005KT CAVOK 12/09 Q1013 RMK BLU
  • 180450Z AUTO 15006KT 9999 BKN200/// 10/07 Q1013
  • 180350Z AUTO 15005KT 9999 BKN220/// 09/07 Q1013

TAF TAF EGXE
Valide du 18 à 06h jusqu'au 18 à 15h UTC


180528Z 1806/1815 19007KT 9999 FEW020
Pas de NOTAMs connus pour ce terrain.



MET'MAP, la Météo Aéronautique d'un coup d'oeil ! - Copyright ORBIFLY Décembre 2007 - Disclaimer

ORBIFLY MET'MAP TEAM :

Programmation & Développement : Alexandra Zaïnal
Conception & Développement : Baudouin d'Aumeries
Co-Programmation & Développement : Marc-Olivier Méhu
Soutien technique & logistique : Manuel Goepfert

Contact : metmap@orbifly.com




SOURCES & CREDITS :

   NOAA